createdAt,value
2023-05-06T00:02:04.530Z,60.58
2023-05-06T00:05:09.332Z,60.28
2023-05-06T00:08:13.519Z,60.42
2023-05-06T00:11:17.542Z,60.57
2023-05-06T00:14:21.658Z,60.77
2023-05-06T00:17:25.690Z,60.94
2023-05-06T00:20:29.736Z,60.64
2023-05-06T00:23:33.677Z,60.75
2023-05-06T00:26:37.732Z,60.69
2023-05-06T00:29:41.624Z,60.94
2023-05-06T00:32:45.699Z,61.35
2023-05-06T00:35:52.351Z,61.25
2023-05-06T00:38:56.448Z,61.51
2023-05-06T00:42:02.387Z,61.85
2023-05-06T00:45:07.693Z,61.94
2023-05-06T00:48:12.490Z,62.12
2023-05-06T00:51:16.909Z,62.14
2023-05-06T00:54:21.667Z,62.32
2023-05-06T00:57:25.835Z,62.38
2023-05-06T01:00:30.168Z,62.61
2023-05-06T01:03:34.211Z,62.36
2023-05-06T01:06:45.590Z,62.66
2023-05-06T01:10:10.813Z,62.54
2023-05-06T01:13:39.980Z,62.49
2023-05-06T01:16:47.976Z,62.63
2023-05-06T01:19:58.511Z,62.63
2023-05-06T01:23:11.480Z,62.59
2023-05-06T01:26:15.355Z,62.18
2023-05-06T01:29:19.349Z,62.28
2023-05-06T01:32:33.965Z,62.43
2023-05-06T01:36:08.947Z,62.24
2023-05-06T01:39:18.261Z,62.18
2023-05-06T01:42:24.535Z,61.83
2023-05-06T01:45:34.029Z,61.83
2023-05-06T01:48:39.854Z,61.86
2023-05-06T01:51:51.470Z,61.75
2023-05-06T01:54:55.434Z,61.57
2023-05-06T01:57:59.544Z,61.65
2023-05-06T02:01:04.035Z,61.29
2023-05-06T02:04:08.063Z,61.46
2023-05-06T02:07:12.111Z,61.18
2023-05-06T02:10:16.176Z,61.42
2023-05-06T02:13:24.796Z,61.24
2023-05-06T02:16:29.678Z,60.90
2023-05-06T02:19:34.426Z,60.80
2023-05-06T02:22:38.476Z,60.72
2023-05-06T02:25:43.311Z,60.54
2023-05-06T02:28:47.327Z,60.53
2023-05-06T02:31:51.404Z,60.46
2023-05-06T02:34:55.461Z,60.32
2023-05-06T02:37:59.874Z,60.01
2023-05-06T02:41:04.313Z,59.95
2023-05-06T02:44:08.244Z,59.75
2023-05-06T02:47:12.234Z,59.73
2023-05-06T02:50:17.111Z,59.36
2023-05-06T02:53:21.196Z,59.55
2023-05-06T02:56:26.422Z,59.30
2023-05-06T02:59:30.436Z,59.47
2023-05-06T03:02:34.516Z,59.54
2023-05-06T03:05:38.552Z,59.75
2023-05-06T03:08:42.485Z,59.29
2023-05-06T03:11:46.514Z,59.58
2023-05-06T03:14:50.928Z,59.51
2023-05-06T03:17:54.853Z,59.45
2023-05-06T03:20:59.090Z,59.42
2023-05-06T03:24:03.684Z,59.21
2023-05-06T03:27:08.333Z,59.26
2023-05-06T03:30:13.631Z,59.50
2023-05-06T03:33:17.695Z,59.65
2023-05-06T03:36:24.082Z,59.88
2023-05-06T03:39:29.111Z,59.94
2023-05-06T03:42:33.534Z,60.05
2023-05-06T03:45:38.326Z,60.01
2023-05-06T03:48:42.590Z,59.75
2023-05-06T03:51:48.663Z,59.88
2023-05-06T03:54:52.976Z,59.88
2023-05-06T03:57:57.193Z,59.83
2023-05-06T04:01:01.426Z,60.03
2023-05-06T04:04:06.081Z,59.96
2023-05-06T04:07:10.660Z,59.91
2023-05-06T04:10:14.759Z,60.01
2023-05-06T04:13:20.253Z,59.66
2023-05-06T04:16:24.633Z,60.18
2023-05-06T04:19:28.696Z,60.36
2023-05-06T04:22:33.351Z,60.05
2023-05-06T04:25:38.056Z,60.55
2023-05-06T04:28:42.865Z,60.38
2023-05-06T04:31:47.493Z,60.73
2023-05-06T04:34:53.270Z,60.42
2023-05-06T04:37:57.731Z,60.55
2023-05-06T04:41:05.519Z,60.27
2023-05-06T04:44:10.336Z,60.10
2023-05-06T04:47:15.140Z,59.90
2023-05-06T04:50:20.722Z,59.79
2023-05-06T04:53:25.148Z,60.02
2023-05-06T04:56:29.367Z,60.33
2023-05-06T04:59:33.884Z,59.90
2023-05-06T05:02:38.286Z,59.91
2023-05-06T05:05:42.974Z,59.86
2023-05-06T05:08:53.047Z,59.87
2023-05-06T05:11:58.357Z,59.72
2023-05-06T05:15:04.221Z,59.43
2023-05-06T05:18:09.043Z,59.23
2023-05-06T05:21:13.706Z,58.98
2023-05-06T05:24:18.114Z,58.90
2023-05-06T05:27:22.334Z,58.75
2023-05-06T05:30:26.552Z,58.26
2023-05-06T05:33:31.231Z,58.02
2023-05-06T05:36:35.941Z,57.64
2023-05-06T05:39:40.949Z,57.55
2023-05-06T05:42:46.190Z,57.25
2023-05-06T05:45:57.404Z,57.21
2023-05-06T05:49:01.700Z,57.16
2023-05-06T05:52:07.261Z,57.02
2023-05-06T05:55:11.689Z,57.07
2023-05-06T05:58:16.282Z,56.85
2023-05-06T06:01:20.751Z,56.73
2023-05-06T06:04:25.721Z,56.44
2023-05-06T06:07:29.896Z,56.51
2023-05-06T06:10:33.951Z,56.75
2023-05-06T06:13:40.482Z,56.79
2023-05-06T06:16:45.054Z,56.45
2023-05-06T06:19:50.756Z,55.95
2023-05-06T06:22:54.882Z,55.68
2023-05-06T06:25:59.097Z,55.89
2023-05-06T06:29:03.117Z,56.04
2023-05-06T06:32:07.255Z,56.13
2023-05-06T06:35:11.552Z,56.18
2023-05-06T06:38:15.890Z,56.09
2023-05-06T06:41:19.900Z,55.60
2023-05-06T06:44:24.359Z,55.32
2023-05-06T06:47:28.332Z,55.27
2023-05-06T06:50:32.971Z,54.76
2023-05-06T06:53:36.897Z,54.86
2023-05-06T06:56:40.999Z,54.58
2023-05-06T06:59:45.426Z,54.31
2023-05-06T07:02:49.515Z,54.22
2023-05-06T07:05:53.766Z,54.44
2023-05-06T07:08:57.783Z,54.20
2023-05-06T07:12:01.909Z,54.13
2023-05-06T07:15:07.591Z,53.36
2023-05-06T07:18:11.983Z,53.18
2023-05-06T07:21:16.304Z,52.95
2023-05-06T07:24:20.628Z,52.43
2023-05-06T07:27:24.640Z,52.13
2023-05-06T07:30:28.586Z,51.55
2023-05-06T07:33:32.776Z,50.97
2023-05-06T07:36:40.910Z,50.98
2023-05-06T07:39:45.006Z,50.30
2023-05-06T07:42:48.905Z,50.03
2023-05-06T07:45:52.890Z,49.81
2023-05-06T07:48:56.950Z,49.46
2023-05-06T07:52:01.280Z,49.04
2023-05-06T07:55:06.199Z,48.79
2023-05-06T07:58:10.154Z,48.75
2023-05-06T08:01:14.140Z,48.29
2023-05-06T08:04:18.209Z,47.88
2023-05-06T08:07:22.195Z,47.99
2023-05-06T08:10:26.290Z,47.45
2023-05-06T08:13:30.712Z,47.49
2023-05-06T08:16:35.827Z,47.34
2023-05-06T08:19:39.778Z,47.22
2023-05-06T08:22:43.709Z,47.13
2023-05-06T08:25:47.694Z,47.39
2023-05-06T08:28:51.678Z,46.70
2023-05-06T08:31:55.675Z,46.79
2023-05-06T08:35:00.790Z,46.72
2023-05-06T08:38:04.765Z,46.41
2023-05-06T08:41:11.772Z,46.10
2023-05-06T08:44:19.252Z,46.25
2023-05-06T08:47:23.318Z,46.29
2023-05-06T08:50:27.718Z,45.60
2023-05-06T08:53:33.968Z,46.04
2023-05-06T08:56:40.354Z,46.70
2023-05-06T08:59:45.091Z,47.01
2023-05-06T09:02:49.287Z,46.61
2023-05-06T09:05:54.330Z,46.95
2023-05-06T09:08:58.591Z,47.53
2023-05-06T09:12:02.884Z,47.72
2023-05-06T09:15:09.410Z,48.09
2023-05-06T09:18:14.874Z,48.17
2023-05-06T09:21:18.827Z,48.92
2023-05-06T09:24:23.819Z,49.65
2023-05-06T09:27:31.292Z,48.98
2023-05-06T09:30:40.498Z,49.16
2023-05-06T09:33:44.625Z,49.20
2023-05-06T09:36:48.638Z,48.64
2023-05-06T09:39:56.985Z,48.51
2023-05-06T09:43:01.367Z,49.02
2023-05-06T09:46:06.554Z,49.08
2023-05-06T09:49:10.837Z,48.40
2023-05-06T09:52:15.314Z,48.87
2023-05-06T09:55:20.083Z,48.27
2023-05-06T09:58:24.227Z,48.42
2023-05-06T10:01:36.747Z,48.36
2023-05-06T10:04:42.575Z,48.11
2023-05-06T10:07:48.403Z,48.34
2023-05-06T10:10:53.093Z,48.41
2023-05-06T10:13:59.879Z,48.40
2023-05-06T10:17:09.621Z,47.93
2023-05-06T10:20:15.088Z,48.22
2023-05-06T10:23:44.486Z,48.08
2023-05-06T10:26:51.135Z,47.81
2023-05-06T10:29:59.669Z,47.28
2023-05-06T10:33:06.686Z,46.82
2023-05-06T10:36:21.602Z,46.72
2023-05-06T10:39:26.576Z,46.77
2023-05-06T10:42:35.448Z,45.97
2023-05-06T10:45:58.871Z,46.16
2023-05-06T10:49:11.312Z,46.05
2023-05-06T10:52:19.802Z,45.95
2023-05-06T10:55:34.402Z,45.93
2023-05-06T10:58:39.761Z,46.35
2023-05-06T11:01:44.893Z,46.08
2023-05-06T11:04:59.683Z,46.77
2023-05-06T11:08:10.708Z,46.62
2023-05-06T11:11:52.472Z,46.53
2023-05-06T11:15:35.088Z,46.34
2023-05-06T11:18:39.077Z,47.25
2023-05-06T11:21:43.062Z,48.38
2023-05-06T11:24:47.025Z,48.71
2023-05-06T11:27:51.071Z,49.41
2023-05-06T11:30:55.930Z,50.38
2023-05-06T11:34:02.350Z,50.74
2023-05-06T11:37:07.974Z,50.77
2023-05-06T11:40:16.077Z,50.97
2023-05-06T11:43:20.089Z,50.65
2023-05-06T11:46:29.936Z,51.30
2023-05-06T11:49:42.546Z,52.32
2023-05-06T11:52:46.560Z,51.87
2023-05-06T11:55:53.646Z,52.99
2023-05-06T11:58:57.563Z,54.14
2023-05-06T12:02:04.554Z,54.85
2023-05-06T12:05:09.523Z,55.54
2023-05-06T12:08:24.022Z,56.67
2023-05-06T12:11:31.243Z,57.44
2023-05-06T12:14:36.049Z,58.09
2023-05-06T12:17:41.606Z,59.17
2023-05-06T12:20:45.698Z,60.12
2023-05-06T12:24:01.201Z,60.79
2023-05-06T12:27:05.248Z,61.08
2023-05-06T12:30:11.321Z,61.27
2023-05-06T12:33:15.942Z,61.36
2023-05-06T12:36:20.160Z,61.71
2023-05-06T12:39:34.310Z,62.07
2023-05-06T12:42:38.296Z,62.75
2023-05-06T12:45:42.418Z,63.29
2023-05-06T12:48:59.643Z,63.26
2023-05-06T12:52:08.593Z,63.45
2023-05-06T12:55:12.648Z,63.83
2023-05-06T12:58:18.551Z,63.79
2023-05-06T13:01:22.683Z,64.12
2023-05-06T13:04:27.520Z,64.12
2023-05-06T13:07:31.444Z,64.14
2023-05-06T13:10:35.354Z,64.43
2023-05-06T13:13:39.303Z,64.43
2023-05-06T13:16:43.922Z,64.78
2023-05-06T13:19:48.102Z,65.04
2023-05-06T13:22:55.221Z,65.17
2023-05-06T13:26:05.221Z,65.51
2023-05-06T13:29:09.727Z,65.93
2023-05-06T13:32:13.746Z,66.26
2023-05-06T13:35:17.821Z,66.59
2023-05-06T13:38:22.148Z,66.50
2023-05-06T13:41:26.479Z,66.31
2023-05-06T13:44:30.495Z,66.67
2023-05-06T13:47:34.537Z,66.90
2023-05-06T13:50:38.626Z,66.74
2023-05-06T13:53:42.662Z,67.45
2023-05-06T13:56:46.603Z,67.44
2023-05-06T13:59:50.848Z,67.52
2023-05-06T14:02:54.848Z,67.43
2023-05-06T14:05:59.227Z,67.43
2023-05-06T14:09:03.732Z,67.90
2023-05-06T14:12:07.636Z,68.08
2023-05-06T14:15:12.091Z,68.04
2023-05-06T14:18:16.404Z,68.15
2023-05-06T14:21:20.930Z,68.46
2023-05-06T14:24:24.945Z,68.47
2023-05-06T14:27:28.962Z,68.84
2023-05-06T14:30:34.426Z,68.80
2023-05-06T14:33:38.943Z,68.88
2023-05-06T14:36:44.256Z,69.15
2023-05-06T14:39:48.206Z,69.11
2023-05-06T14:42:53.631Z,69.13
2023-05-06T14:45:57.562Z,69.30
2023-05-06T14:49:01.777Z,69.35
2023-05-06T14:52:05.668Z,69.27
2023-05-06T14:55:11.267Z,69.66
2023-05-06T14:58:15.480Z,69.66
2023-05-06T15:01:19.490Z,69.95
2023-05-06T15:04:23.608Z,69.84
2023-05-06T15:07:27.546Z,69.83
2023-05-06T15:10:31.530Z,69.89
2023-05-06T15:13:35.518Z,70.26
2023-05-06T15:16:39.902Z,70.15
2023-05-06T15:19:43.978Z,70.13
2023-05-06T15:22:48.244Z,70.23
2023-05-06T15:25:52.327Z,70.49
2023-05-06T15:28:56.345Z,70.36
2023-05-06T15:32:00.675Z,70.68
2023-05-06T15:35:06.459Z,70.69
2023-05-06T15:38:11.065Z,70.86
2023-05-06T15:41:14.942Z,70.96
2023-05-06T15:44:20.994Z,71.04
2023-05-06T15:47:25.390Z,71.21
2023-05-06T15:50:33.758Z,71.45
2023-05-06T15:53:42.376Z,71.35
2023-05-06T15:56:46.634Z,71.52
2023-05-06T15:59:50.632Z,71.39
2023-05-06T16:02:54.770Z,71.69
2023-05-06T16:05:59.724Z,71.91
2023-05-06T16:09:04.005Z,72.25
2023-05-06T16:12:08.126Z,72.20
2023-05-06T16:15:12.351Z,71.99
2023-05-06T16:18:16.692Z,72.28
2023-05-06T16:21:20.676Z,72.27
2023-05-06T16:24:24.607Z,72.24
2023-05-06T16:27:28.925Z,72.39
2023-05-06T16:30:32.860Z,72.50
2023-05-06T16:33:36.828Z,72.55
2023-05-06T16:36:41.239Z,72.86
2023-05-06T16:39:45.378Z,73.09
2023-05-06T16:42:50.351Z,72.80
2023-05-06T16:45:54.294Z,72.88
2023-05-06T16:48:58.299Z,73.17
2023-05-06T16:52:02.376Z,73.36
2023-05-06T16:55:07.821Z,73.02
2023-05-06T16:58:11.874Z,73.33
2023-05-06T17:01:16.190Z,73.33
2023-05-06T17:04:20.387Z,73.60
2023-05-06T17:07:24.321Z,73.60
2023-05-06T17:10:29.465Z,73.50
2023-05-06T17:13:34.026Z,73.87
2023-05-06T17:16:39.010Z,73.73
2023-05-06T17:19:42.942Z,73.95
2023-05-06T17:22:47.042Z,74.01
2023-05-06T17:25:51.540Z,74.03
2023-05-06T17:28:55.587Z,74.11
2023-05-06T17:32:00.010Z,74.05
2023-05-06T17:35:04.442Z,74.08
2023-05-06T17:38:12.950Z,74.28
2023-05-06T17:41:16.973Z,74.23
2023-05-06T17:44:20.990Z,74.31
2023-05-06T17:47:25.123Z,74.37
2023-05-06T17:50:29.121Z,74.50
2023-05-06T17:53:34.166Z,74.82
2023-05-06T17:56:38.112Z,74.53
2023-05-06T17:59:42.092Z,74.74
2023-05-06T18:02:46.767Z,74.66
2023-05-06T18:05:51.556Z,74.87
2023-05-06T18:08:55.670Z,74.85
2023-05-06T18:11:59.582Z,75.17
2023-05-06T18:15:04.098Z,75.14
2023-05-06T18:18:08.494Z,75.15
2023-05-06T18:21:12.647Z,75.26
2023-05-06T18:24:17.004Z,75.01
2023-05-06T18:27:22.221Z,74.98
2023-05-06T18:30:26.064Z,75.41
2023-05-06T18:33:30.058Z,75.19
2023-05-06T18:36:35.218Z,75.38
2023-05-06T18:39:42.823Z,75.08
2023-05-06T18:42:47.637Z,75.06
2023-05-06T18:45:52.322Z,75.59
2023-05-06T18:48:56.865Z,75.34
2023-05-06T18:52:02.348Z,75.91
2023-05-06T18:55:07.492Z,76.13
2023-05-06T18:58:11.500Z,75.78
2023-05-06T19:01:16.041Z,76.15
2023-05-06T19:04:19.926Z,76.29
2023-05-06T19:07:24.073Z,76.09
2023-05-06T19:10:28.075Z,76.19
2023-05-06T19:13:32.056Z,76.27
2023-05-06T19:16:36.169Z,76.03
2023-05-06T19:19:40.740Z,75.92
2023-05-06T19:22:44.656Z,76.07
2023-05-06T19:25:48.591Z,76.04
2023-05-06T19:28:52.668Z,75.93
2023-05-06T19:31:56.589Z,76.00
2023-05-06T19:35:08.345Z,76.15
2023-05-06T19:38:12.943Z,76.14
2023-05-06T19:41:16.938Z,76.10
2023-05-06T19:44:21.467Z,75.99
2023-05-06T19:47:26.322Z,76.00
2023-05-06T19:50:33.493Z,76.05
2023-05-06T19:53:37.713Z,75.79
2023-05-06T19:56:43.550Z,76.05
2023-05-06T19:59:47.477Z,76.21
2023-05-06T20:02:51.492Z,76.02
2023-05-06T20:05:56.237Z,75.58
2023-05-06T20:09:00.359Z,76.10
2023-05-06T20:12:06.429Z,75.98
2023-05-06T20:15:10.874Z,75.97
2023-05-06T20:18:15.419Z,75.87
2023-05-06T20:21:19.581Z,75.79
2023-05-06T20:24:24.313Z,75.94
2023-05-06T20:27:28.337Z,75.94
2023-05-06T20:30:32.861Z,75.93
2023-05-06T20:33:36.904Z,76.00
2023-05-06T20:36:43.048Z,76.05
2023-05-06T20:39:46.963Z,76.01
2023-05-06T20:42:50.899Z,76.53
2023-05-06T20:45:54.836Z,76.23
2023-05-06T20:48:59.093Z,75.78
2023-05-06T20:52:04.347Z,76.12
2023-05-06T20:55:09.565Z,76.14
2023-05-06T20:58:13.724Z,75.97
2023-05-06T21:01:18.810Z,76.09
2023-05-06T21:04:22.969Z,76.26
2023-05-06T21:07:26.862Z,76.22
2023-05-06T21:10:30.904Z,76.26
2023-05-06T21:13:34.852Z,76.16
2023-05-06T21:16:41.813Z,76.28
2023-05-06T21:19:45.722Z,75.79
2023-05-06T21:22:49.942Z,76.05
2023-05-06T21:25:53.906Z,76.11
2023-05-06T21:28:57.849Z,76.07
2023-05-06T21:32:01.750Z,76.24
2023-05-06T21:35:06.814Z,76.15
2023-05-06T21:38:10.936Z,76.30
2023-05-06T21:41:15.038Z,75.85
2023-05-06T21:44:19.040Z,75.76
2023-05-06T21:47:22.977Z,75.91
2023-05-06T21:50:26.966Z,75.61
2023-05-06T21:53:31.012Z,75.69
2023-05-06T21:56:35.033Z,75.65
2023-05-06T21:59:39.573Z,75.87
2023-05-06T22:02:43.673Z,75.48
2023-05-06T22:05:47.759Z,75.40
2023-05-06T22:08:52.119Z,75.60
2023-05-06T22:11:56.130Z,75.58
2023-05-06T22:15:00.075Z,75.26
2023-05-06T22:18:04.275Z,75.30
2023-05-06T22:21:08.833Z,75.16
2023-05-06T22:24:12.774Z,75.56
2023-05-06T22:27:16.815Z,75.53
2023-05-06T22:30:21.128Z,75.39
2023-05-06T22:33:26.444Z,75.79
2023-05-06T22:36:33.640Z,75.24
2023-05-06T22:39:37.607Z,75.29
2023-05-06T22:42:41.530Z,75.37
2023-05-06T22:45:45.593Z,75.15
2023-05-06T22:48:49.616Z,75.18
2023-05-06T22:51:53.763Z,75.27
2023-05-06T22:54:57.661Z,75.51
2023-05-06T22:58:01.572Z,75.46
2023-05-06T23:01:07.466Z,75.14
2023-05-06T23:04:11.597Z,75.41
2023-05-06T23:07:15.772Z,75.27
2023-05-06T23:10:20.004Z,75.45
2023-05-06T23:13:24.005Z,75.27
2023-05-06T23:16:29.706Z,75.27
2023-05-06T23:19:33.900Z,75.36
2023-05-06T23:22:38.020Z,75.09
2023-05-06T23:25:41.966Z,75.31
2023-05-06T23:28:45.945Z,75.11
2023-05-06T23:31:49.959Z,74.93
2023-05-06T23:34:53.977Z,75.15
2023-05-06T23:37:57.995Z,75.23
2023-05-06T23:41:01.929Z,75.19
2023-05-06T23:44:06.354Z,74.91
2023-05-06T23:47:10.649Z,74.95
2023-05-06T23:50:14.947Z,74.84
2023-05-06T23:53:19.115Z,74.96
2023-05-06T23:56:23.053Z,75.11
2023-05-06T23:59:29.488Z,75.13
